createdAt,value
2024-05-09T00:01:40.439Z,-2.050
2024-05-09T00:02:40.417Z,-2.050
2024-05-09T00:03:40.470Z,-2.053
2024-05-09T00:04:40.485Z,-2.058
2024-05-09T00:05:40.830Z,-2.035
2024-05-09T00:06:40.469Z,-2.016
2024-05-09T00:07:40.482Z,-1.998
2024-05-09T00:08:40.577Z,-2.000
2024-05-09T00:09:40.503Z,-2.086
2024-05-09T00:10:41.335Z,-2.086
2024-05-09T00:11:40.772Z,-2.086
2024-05-09T00:12:40.532Z,-2.067
2024-05-09T00:13:40.534Z,-2.029
2024-05-09T00:14:40.563Z,-2.007
2024-05-09T00:15:40.544Z,-1.988
2024-05-09T00:16:40.556Z,-1.988
2024-05-09T00:17:41.015Z,-1.988
2024-05-09T00:18:40.802Z,-2.000
2024-05-09T00:19:40.613Z,-1.981
2024-05-09T00:20:41.408Z,-1.963
2024-05-09T00:21:40.618Z,-1.945
2024-05-09T00:22:40.664Z,-1.927
2024-05-09T00:23:40.758Z,-1.990
2024-05-09T00:26:40.727Z,-2.013
2024-05-09T00:27:40.682Z,-1.995
2024-05-09T00:29:40.675Z,-2.013
2024-05-09T00:30:40.823Z,-2.013
2024-05-09T00:31:40.685Z,-1.995
2024-05-09T00:32:40.848Z,-1.977
2024-05-09T00:33:40.911Z,-1.979
2024-05-09T00:34:40.729Z,-2.043
2024-05-09T00:35:40.752Z,-2.065
2024-05-09T00:36:40.747Z,-2.046
2024-05-09T00:37:40.757Z,-2.046
2024-05-09T00:38:40.807Z,-2.085
2024-05-09T00:39:40.795Z,-2.085
2024-05-09T00:40:42.841Z,-2.067
2024-05-09T00:41:40.903Z,-2.049
2024-05-09T00:42:40.822Z,-2.049
2024-05-09T00:43:40.812Z,-2.110
2024-05-09T00:45:40.818Z,-2.110
2024-05-09T00:46:40.833Z,-2.110
2024-05-09T00:47:41.031Z,-2.110
2024-05-09T00:48:41.047Z,-2.137
2024-05-09T00:49:40.947Z,-2.155
2024-05-09T00:50:41.538Z,-2.155
2024-05-09T00:51:40.896Z,-2.155
2024-05-09T00:54:40.920Z,-2.131
2024-05-09T00:55:40.973Z,-2.131
2024-05-09T00:56:40.967Z,-2.131
2024-05-09T00:59:40.963Z,-2.222
2024-05-09T01:00:41.743Z,-2.222
2024-05-09T01:01:41.093Z,-2.240
2024-05-09T01:02:41.079Z,-2.286
2024-05-09T01:03:41.186Z,-2.305
2024-05-09T01:04:41.060Z,-2.305
2024-05-09T01:05:41.426Z,-2.287
2024-05-09T01:06:41.024Z,-2.269
2024-05-09T01:07:41.046Z,-2.269
2024-05-09T01:08:41.137Z,-2.265
2024-05-09T01:09:41.045Z,-2.283
2024-05-09T01:11:41.112Z,-2.283
2024-05-09T01:12:41.082Z,-2.288
2024-05-09T01:13:41.070Z,-2.305
2024-05-09T01:14:41.089Z,-2.288
2024-05-09T01:15:41.126Z,-2.252
2024-05-09T01:16:41.139Z,-2.256
2024-05-09T01:17:41.388Z,-2.216
2024-05-09T01:18:41.215Z,-2.237
2024-05-09T01:19:41.228Z,-2.219
2024-05-09T01:20:43.923Z,-2.179
2024-05-09T01:21:41.158Z,-2.196
2024-05-09T01:22:41.170Z,-2.242
2024-05-09T01:23:41.219Z,-2.242
2024-05-09T01:24:41.191Z,-2.246
2024-05-09T01:25:41.203Z,-2.229
2024-05-09T01:27:41.218Z,-2.229
2024-05-09T01:32:41.443Z,-2.314
2024-05-09T01:33:41.502Z,-2.332
2024-05-09T01:34:41.290Z,-2.399
2024-05-09T01:35:42.451Z,-2.417
2024-05-09T01:36:41.301Z,-2.417
2024-05-09T01:37:41.307Z,-2.417
2024-05-09T01:38:41.439Z,-2.461
2024-05-09T01:39:41.318Z,-2.461
2024-05-09T01:40:41.325Z,-2.478
2024-05-09T01:41:41.336Z,-2.478
2024-05-09T01:42:41.356Z,-2.478
2024-05-09T01:43:41.353Z,-2.466
2024-05-09T01:44:41.380Z,-2.484
2024-05-09T01:45:41.714Z,-2.524
2024-05-09T01:46:41.389Z,-2.524
2024-05-09T01:47:41.828Z,-2.588
2024-05-09T01:48:41.552Z,-2.624
2024-05-09T01:49:41.485Z,-2.642
2024-05-09T01:50:43.085Z,-2.642
2024-05-09T01:51:41.425Z,-2.660
2024-05-09T01:52:41.465Z,-2.637
2024-05-09T01:53:41.455Z,-2.718
2024-05-09T01:54:41.451Z,-2.786
2024-05-09T01:55:41.522Z,-2.786
2024-05-09T01:56:41.570Z,-2.745
2024-05-09T01:57:41.491Z,-2.768
2024-05-09T01:58:41.501Z,-2.775
2024-05-09T01:59:41.575Z,-2.775
2024-05-09T02:00:43.064Z,-2.775
2024-05-09T02:01:56.079Z,-2.793
2024-05-09T02:02:41.635Z,-2.793
2024-05-09T02:03:41.705Z,-2.863
2024-05-09T02:04:41.678Z,-2.881
2024-05-09T02:05:41.651Z,-2.881
2024-05-09T02:06:41.583Z,-2.966
2024-05-09T02:07:41.581Z,-2.949
2024-05-09T02:08:41.633Z,-2.931
2024-05-09T02:09:41.594Z,-2.994
2024-05-09T02:10:41.638Z,-2.999
2024-05-09T02:11:41.748Z,-2.992
2024-05-09T02:12:41.622Z,-2.992
2024-05-09T02:13:41.632Z,-3.010
2024-05-09T02:14:41.676Z,-3.022
2024-05-09T02:15:41.675Z,-3.045
2024-05-09T02:16:41.665Z,-3.074
2024-05-09T02:17:41.974Z,-3.056
2024-05-09T02:18:41.908Z,-3.038
2024-05-09T02:19:41.689Z,-3.020
2024-05-09T02:20:42.530Z,-3.020
2024-05-09T02:21:41.710Z,-2.998
2024-05-09T02:22:41.707Z,-2.998
2024-05-09T02:23:41.826Z,-2.998
2024-05-09T02:24:41.756Z,-3.089
2024-05-09T02:25:41.750Z,-3.066
2024-05-09T02:26:41.774Z,-3.099
2024-05-09T02:27:41.785Z,-3.099
2024-05-09T02:28:41.790Z,-3.099
2024-05-09T02:29:41.861Z,-3.144
2024-05-09T02:30:42.659Z,-3.126
2024-05-09T02:31:41.819Z,-3.185
2024-05-09T02:32:41.867Z,-3.203
2024-05-09T02:33:41.964Z,-3.221
2024-05-09T02:34:41.834Z,-3.238
2024-05-09T02:35:42.028Z,-3.221
2024-05-09T02:36:41.851Z,-3.253
2024-05-09T02:37:41.868Z,-3.253
2024-05-09T02:38:41.913Z,-3.235
2024-05-09T02:39:41.892Z,-3.217
2024-05-09T02:40:41.928Z,-3.199
2024-05-09T02:41:41.914Z,-3.162
2024-05-09T02:42:41.933Z,-3.162
2024-05-09T02:43:41.932Z,-3.207
2024-05-09T02:44:41.938Z,-3.195
2024-05-09T02:45:42.038Z,-3.177
2024-05-09T02:46:41.964Z,-3.225
2024-05-09T02:47:42.057Z,-3.225
2024-05-09T02:48:42.041Z,-3.225
2024-05-09T02:49:41.967Z,-3.225
2024-05-09T02:50:42.322Z,-3.310
2024-05-09T02:51:42.000Z,-3.334
2024-05-09T02:52:42.013Z,-3.396
2024-05-09T02:53:42.058Z,-3.396
2024-05-09T02:54:42.028Z,-3.396
2024-05-09T02:55:42.529Z,-3.381
2024-05-09T02:56:42.137Z,-3.364
2024-05-09T02:57:42.052Z,-3.381
2024-05-09T02:58:42.071Z,-3.364
2024-05-09T02:59:42.079Z,-3.381
2024-05-09T03:00:43.089Z,-3.370
2024-05-09T03:03:42.306Z,-3.411
2024-05-09T03:04:42.195Z,-3.428
2024-05-09T03:05:42.490Z,-3.465
2024-05-09T03:06:42.122Z,-3.448
2024-05-09T03:07:42.133Z,-3.448
2024-05-09T03:08:42.165Z,-3.493
2024-05-09T03:09:42.154Z,-3.476
2024-05-09T03:10:42.170Z,-3.510
2024-05-09T03:11:42.346Z,-3.510
2024-05-09T03:12:42.228Z,-3.475
2024-05-09T03:13:42.183Z,-3.475
2024-05-09T03:14:42.199Z,-3.429
2024-05-09T03:15:42.194Z,-3.414
2024-05-09T03:16:42.213Z,-3.379
2024-05-09T03:17:42.358Z,-3.299
2024-05-09T03:18:42.252Z,-3.282
2024-05-09T03:19:42.246Z,-3.247
2024-05-09T03:20:42.386Z,-3.291
2024-05-09T03:21:42.265Z,-3.274
2024-05-09T03:22:42.276Z,-3.256
2024-05-09T03:23:42.373Z,-3.239
2024-05-09T03:24:42.288Z,-3.205
2024-05-09T03:25:42.297Z,-3.175
2024-05-09T03:26:42.305Z,-3.175
2024-05-09T03:27:42.306Z,-3.158
2024-05-09T03:28:42.312Z,-3.158
2024-05-09T03:29:42.312Z,-3.158
2024-05-09T03:30:43.334Z,-3.175
2024-05-09T03:31:42.371Z,-3.175
2024-05-09T03:32:42.508Z,-3.158
2024-05-09T03:33:42.669Z,-3.141
2024-05-09T03:34:42.364Z,-3.141
2024-05-09T03:35:42.388Z,-3.103
2024-05-09T03:36:42.380Z,-3.103
2024-05-09T03:37:42.392Z,-3.086
2024-05-09T03:38:42.443Z,-3.103
2024-05-09T03:39:42.407Z,-3.120
2024-05-09T03:40:42.416Z,-3.103
2024-05-09T03:41:42.529Z,-3.086
2024-05-09T03:42:42.427Z,-3.086
2024-05-09T03:43:42.432Z,-3.086
2024-05-09T03:44:42.477Z,-3.069
2024-05-09T03:45:42.455Z,-3.069
2024-05-09T03:46:42.472Z,-3.052
2024-05-09T03:47:42.786Z,-3.069
2024-05-09T03:48:42.578Z,-3.052
2024-05-09T03:49:42.537Z,-3.024
2024-05-09T03:50:42.623Z,-2.967
2024-05-09T03:51:42.517Z,-2.950
2024-05-09T03:52:42.506Z,-2.933
2024-05-09T03:53:42.576Z,-2.933
2024-05-09T03:54:42.524Z,-2.933
2024-05-09T03:55:42.540Z,-2.878
2024-05-09T03:56:42.596Z,-2.855
2024-05-09T03:57:42.541Z,-2.838
2024-05-09T03:58:42.580Z,-2.838
2024-05-09T03:59:42.575Z,-2.776
2024-05-09T04:00:42.788Z,-2.799
2024-05-09T04:01:42.738Z,-2.799
2024-05-09T04:02:42.674Z,-2.782
2024-05-09T04:03:42.754Z,-2.782
2024-05-09T04:04:42.712Z,-2.765
2024-05-09T04:05:43.621Z,-2.731
2024-05-09T04:06:42.631Z,-2.715
2024-05-09T04:07:42.647Z,-2.698
2024-05-09T04:08:42.734Z,-2.698
2024-05-09T04:09:42.643Z,-2.681
2024-05-09T04:10:42.648Z,-2.644
2024-05-09T04:11:42.748Z,-2.644
2024-05-09T04:12:42.702Z,-2.627
2024-05-09T04:13:42.716Z,-2.506
2024-05-09T04:14:42.776Z,-2.490
2024-05-09T04:15:42.728Z,-2.490
2024-05-09T04:16:42.730Z,-2.456
2024-05-09T04:17:42.888Z,-2.456
2024-05-09T04:18:42.861Z,-2.412
2024-05-09T04:19:42.759Z,-2.412
2024-05-09T04:20:42.797Z,-2.412
2024-05-09T04:21:42.795Z,-2.395
2024-05-09T04:23:42.831Z,-2.345
2024-05-09T04:24:42.796Z,-2.345
2024-05-09T04:25:42.840Z,-2.306
2024-05-09T04:26:42.851Z,-2.290
2024-05-09T04:27:42.826Z,-2.244
2024-05-09T04:28:42.841Z,-2.215
2024-05-09T04:29:42.855Z,-2.198
2024-05-09T04:30:43.365Z,-2.198
2024-05-09T04:31:42.869Z,-2.182
2024-05-09T04:32:43.047Z,-2.182
2024-05-09T04:33:42.959Z,-2.092
2024-05-09T04:34:42.912Z,-2.075
2024-05-09T04:35:43.588Z,-2.075
2024-05-09T04:36:44.665Z,-2.059
2024-05-09T04:37:42.908Z,-2.042
2024-05-09T04:38:42.970Z,-2.005
2024-05-09T04:39:42.921Z,-1.959
2024-05-09T04:40:42.981Z,-1.949
2024-05-09T04:41:42.946Z,-1.910
2024-05-09T04:42:42.957Z,-1.910
2024-05-09T04:43:42.974Z,-1.887
2024-05-09T04:44:42.988Z,-1.854
2024-05-09T04:45:42.991Z,-1.786
2024-05-09T04:46:43.003Z,-1.770
2024-05-09T04:47:43.239Z,-1.770
2024-05-09T04:48:43.171Z,-1.660
2024-05-09T04:52:43.057Z,-1.622
2024-05-09T04:53:43.073Z,-1.539
2024-05-09T04:54:43.056Z,-1.539
2024-05-09T04:55:43.067Z,-1.494
2024-05-09T04:56:43.202Z,-1.494
2024-05-09T04:57:43.094Z,-1.310
2024-05-09T04:58:43.116Z,-1.264
2024-05-09T04:59:43.109Z,-1.241
2024-05-09T05:00:43.243Z,-1.241
2024-05-09T05:01:43.135Z,-1.102
2024-05-09T05:02:43.270Z,-1.086
2024-05-09T05:03:43.304Z,-1.000
2024-05-09T05:04:43.321Z,-0.9379
2024-05-09T05:05:44.070Z,-0.9215
2024-05-09T05:06:43.172Z,-0.8336
2024-05-09T05:07:43.173Z,-0.8558
2024-05-09T05:08:43.246Z,-0.8394
2024-05-09T05:09:43.194Z,-0.6942
2024-05-09T05:10:43.239Z,-0.6942
2024-05-09T05:11:43.278Z,-0.6483
2024-05-09T05:12:43.229Z,-0.6646
2024-05-09T05:13:43.257Z,-0.6810
2024-05-09T05:14:43.246Z,-0.6194
2024-05-09T05:15:43.257Z,-0.5677
2024-05-09T05:16:43.252Z,-0.5842
2024-05-09T05:17:43.510Z,-0.4842
2024-05-09T05:18:43.404Z,-0.4713
2024-05-09T05:19:43.378Z,-0.4878
2024-05-09T05:20:43.412Z,-0.3936
2024-05-09T05:21:43.294Z,-0.3643
2024-05-09T05:22:43.317Z,-0.3745
2024-05-09T05:26:43.408Z,-0.3256
2024-05-09T05:27:43.357Z,-0.3593
2024-05-09T05:28:43.369Z,-0.3763
2024-05-09T05:29:43.468Z,-0.3356
2024-05-09T05:30:43.392Z,-0.3136
2024-05-09T05:31:43.436Z,-0.2010
2024-05-09T05:32:43.606Z,-0.1839
2024-05-09T05:34:43.403Z,-0.2294
2024-05-09T05:35:43.599Z,-0.2009
2024-05-09T05:36:43.433Z,-0.1504
2024-05-09T05:37:43.436Z,-0.2021
2024-05-09T05:38:43.562Z,-0.2139
2024-05-09T05:39:43.460Z,-0.2432
2024-05-09T05:40:43.471Z,-0.1804
2024-05-09T05:41:43.546Z,-0.2328
2024-05-09T05:42:43.497Z,-0.2048
2024-05-09T05:43:43.497Z,-0.2752
2024-05-09T05:44:43.503Z,-0.2161
2024-05-09T05:46:43.497Z,-0.1687
2024-05-09T05:47:43.738Z,-0.2404
2024-05-09T05:48:43.608Z,-0.2721
2024-05-09T05:49:43.526Z,-0.3021
2024-05-09T05:50:43.599Z,-0.2130
2024-05-09T05:51:43.549Z,-0.3022
2024-05-09T05:52:43.571Z,-0.2557
2024-05-09T05:53:43.636Z,-0.3350
2024-05-09T05:54:43.579Z,-0.3071
2024-05-09T05:55:43.584Z,-0.2737
2024-05-09T05:56:43.651Z,-0.2859
2024-05-09T05:57:43.583Z,-0.3070
2024-05-09T05:58:43.644Z,-0.4584
2024-05-09T05:59:43.660Z,-0.5730
2024-05-09T06:00:43.629Z,-0.5922
2024-05-09T06:01:43.638Z,-0.5037
2024-05-09T06:02:43.778Z,-0.4554
2024-05-09T06:03:43.749Z,-0.4699
2024-05-09T06:04:43.766Z,-0.5279
2024-05-09T06:05:44.317Z,-0.4220
2024-05-09T06:06:43.673Z,-0.4806
2024-05-09T06:07:43.682Z,-0.5831
2024-05-09T06:08:43.836Z,-0.6332
2024-05-09T06:09:45.306Z,-0.5851
2024-05-09T06:10:43.819Z,-0.6409
2024-05-09T06:11:43.789Z,-0.6849
2024-05-09T06:12:43.721Z,-0.6050
2024-05-09T06:13:43.736Z,-0.4572
2024-05-09T06:14:43.737Z,-0.4927
2024-05-09T06:15:44.187Z,-0.4927
2024-05-09T06:16:43.779Z,-0.5451
2024-05-09T06:17:43.932Z,-0.6629
2024-05-09T06:18:43.897Z,-0.7492
2024-05-09T06:19:43.902Z,-0.8316
2024-05-09T06:20:44.472Z,-0.8316
2024-05-09T06:21:43.818Z,-0.8986
2024-05-09T06:22:43.822Z,-0.8734
2024-05-09T06:23:43.905Z,-0.8914
2024-05-09T06:24:43.839Z,-0.8705
2024-05-09T06:25:43.964Z,-0.8078
2024-05-09T06:26:43.901Z,-0.7611
2024-05-09T06:27:43.862Z,-0.7401
2024-05-09T06:28:43.882Z,-0.7190
2024-05-09T06:29:43.888Z,-0.7156
2024-05-09T06:30:43.899Z,-0.7129
2024-05-09T06:31:43.933Z,-0.8404
2024-05-09T06:32:44.105Z,-0.9670
2024-05-09T06:33:44.100Z,-1.016
2024-05-09T06:34:44.140Z,-1.062
2024-05-09T06:35:44.183Z,-1.040
2024-05-09T06:36:43.967Z,-1.106
2024-05-09T06:37:43.974Z,-1.175
2024-05-09T06:38:44.158Z,-1.309
2024-05-09T06:39:43.982Z,-1.266
2024-05-09T06:40:44.744Z,-1.379
2024-05-09T06:41:44.079Z,-1.355
2024-05-09T06:42:43.993Z,-1.259
2024-05-09T06:43:44.049Z,-1.212
2024-05-09T06:44:44.048Z,-1.257
2024-05-09T06:50:44.149Z,-1.767
2024-05-09T06:51:44.107Z,-1.889
2024-05-09T06:52:44.089Z,-2.055
2024-05-09T06:53:44.116Z,-2.253
2024-05-09T06:54:44.089Z,-2.152
2024-05-09T06:55:44.166Z,-2.253
2024-05-09T06:56:44.172Z,-2.346
2024-05-09T06:57:44.133Z,-2.410
2024-05-09T06:58:44.140Z,-2.410
2024-05-09T06:59:44.202Z,-2.335
2024-05-09T07:00:44.288Z,-2.439
2024-05-09T07:01:44.169Z,-2.403
2024-05-09T07:02:44.477Z,-2.509
2024-05-09T07:04:44.229Z,-2.912
2024-05-09T07:05:44.564Z,-2.956
2024-05-09T07:06:44.198Z,-3.083
2024-05-09T07:07:44.210Z,-3.167
2024-05-09T07:08:44.267Z,-3.251
2024-05-09T07:09:44.216Z,-3.280
2024-05-09T07:10:44.488Z,-3.298
2024-05-09T07:11:44.368Z,-3.304
2024-05-09T07:12:44.260Z,-3.390
2024-05-09T07:18:44.670Z,-3.596
2024-05-09T07:19:44.334Z,-3.626
2024-05-09T07:20:44.414Z,-3.594
2024-05-09T07:21:44.323Z,-3.684
2024-05-09T07:22:44.334Z,-3.592
2024-05-09T07:23:46.882Z,-3.743
2024-05-09T07:24:44.353Z,-3.866
2024-05-09T07:25:44.369Z,-3.959
2024-05-09T07:26:44.408Z,-4.170
2024-05-09T07:27:44.384Z,-4.094
2024-05-09T07:28:44.390Z,-4.102
2024-05-09T07:29:44.522Z,-4.082
2024-05-09T07:30:44.568Z,-4.242
2024-05-09T07:33:44.533Z,-4.323
2024-05-09T07:36:44.439Z,-4.323
2024-05-09T07:37:44.445Z,-4.318
2024-05-09T07:38:44.505Z,-4.331
2024-05-09T07:39:44.473Z,-4.398
2024-05-09T07:40:44.504Z,-4.420
2024-05-09T07:41:44.583Z,-4.371
2024-05-09T07:42:44.493Z,-4.359
2024-05-09T07:43:44.491Z,-4.412
2024-05-09T07:44:44.491Z,-4.514
2024-05-09T07:45:51.653Z,-4.548
2024-05-09T07:47:48.298Z,-4.453
2024-05-09T07:51:32.321Z,-4.618
2024-05-09T07:53:34.408Z,-4.654
2024-05-09T07:53:48.025Z,-4.609
2024-05-09T07:54:44.677Z,-4.749
2024-05-09T07:55:44.677Z,-4.752
2024-05-09T07:56:44.808Z,-4.712
2024-05-09T07:57:44.639Z,-4.748
2024-05-09T07:58:44.596Z,-4.797
2024-05-09T07:59:44.602Z,-4.669
2024-05-09T08:00:44.743Z,-4.720
2024-05-09T08:01:44.732Z,-4.674
2024-05-09T08:02:44.681Z,-4.710
2024-05-09T08:03:44.937Z,-4.747
2024-05-09T08:04:44.779Z,-4.820
2024-05-09T08:05:44.742Z,-4.922
2024-05-09T08:06:44.756Z,-4.959
2024-05-09T08:07:44.678Z,-4.899
2024-05-09T08:08:44.689Z,-4.839
2024-05-09T08:09:44.728Z,-4.862
2024-05-09T08:10:44.833Z,-4.899
2024-05-09T08:11:44.776Z,-4.764
2024-05-09T08:12:44.700Z,-4.727
2024-05-09T08:13:44.753Z,-4.608
2024-05-09T08:14:44.729Z,-4.571
2024-05-09T08:15:44.929Z,-4.608
2024-05-09T08:16:44.739Z,-4.600
2024-05-09T08:17:44.887Z,-4.563
2024-05-09T08:18:44.917Z,-4.473
2024-05-09T08:19:44.826Z,-4.399
2024-05-09T08:20:44.774Z,-4.280
2024-05-09T08:21:44.793Z,-4.170
2024-05-09T08:22:44.787Z,-4.111
2024-05-09T08:23:44.807Z,-4.074
2024-05-09T08:25:44.839Z,-4.123
2024-05-09T08:26:44.822Z,-4.123
2024-05-09T08:27:44.851Z,-4.004
2024-05-09T08:28:44.835Z,-3.931
2024-05-09T08:29:44.910Z,-3.822
2024-05-09T08:30:45.160Z,-3.640
2024-05-09T08:31:44.933Z,-3.497
2024-05-09T08:32:44.952Z,-3.324
2024-05-09T08:33:45.155Z,-3.253
2024-05-09T08:34:44.932Z,-3.171
2024-05-09T08:35:44.922Z,-3.164
2024-05-09T08:36:44.919Z,-3.035
2024-05-09T08:37:44.943Z,-3.069
2024-05-09T08:38:44.904Z,-3.069
2024-05-09T08:39:44.948Z,-2.842
2024-05-09T08:40:44.983Z,-2.808
2024-05-09T08:41:44.941Z,-2.705
2024-05-09T08:42:45.036Z,-2.637
2024-05-09T08:43:44.983Z,-2.603
2024-05-09T08:44:44.968Z,-2.569
2024-05-09T08:48:45.246Z,-2.374
2024-05-09T08:49:45.023Z,-2.405
2024-05-09T08:50:45.890Z,-2.338
2024-05-09T08:51:45.045Z,-2.222
2024-05-09T08:52:45.064Z,-2.138
2024-05-09T08:53:45.025Z,-2.172
2024-05-09T08:54:45.155Z,-2.015
2024-05-09T08:55:45.047Z,-1.903
2024-05-09T08:56:45.065Z,-1.903
2024-05-09T08:57:45.128Z,-1.800
2024-05-09T08:58:45.076Z,-1.749
2024-05-09T08:59:45.085Z,-1.646
2024-05-09T09:00:46.089Z,-1.711
2024-05-09T09:01:45.314Z,-1.679
2024-05-09T09:02:45.211Z,-1.549
2024-05-09T09:03:45.302Z,-1.392
2024-05-09T09:04:45.188Z,-1.357
2024-05-09T09:05:45.144Z,-1.453
2024-05-09T09:06:45.212Z,-1.517
2024-05-09T09:07:45.138Z,-1.485
2024-05-09T09:08:45.150Z,-1.453
2024-05-09T09:09:45.223Z,-1.392
2024-05-09T09:10:45.473Z,-1.392
2024-05-09T09:11:45.199Z,-1.456
2024-05-09T09:12:45.215Z,-1.521
2024-05-09T09:13:45.200Z,-1.553
2024-05-09T09:14:45.194Z,-1.551
2024-05-09T09:15:45.242Z,-1.487
2024-05-09T09:16:45.215Z,-1.390
2024-05-09T09:17:45.256Z,-1.211
2024-05-09T09:18:45.344Z,-1.056
2024-05-09T09:19:45.286Z,-0.9614
2024-05-09T09:20:45.305Z,-0.8002
2024-05-09T09:21:45.277Z,-0.7380
2024-05-09T09:22:45.268Z,-0.7070
2024-05-09T09:23:45.295Z,-0.7070
2024-05-09T09:24:45.331Z,-0.4700
2024-05-09T09:25:45.289Z,-0.4085
2024-05-09T09:26:45.290Z,-0.3474
2024-05-09T09:27:45.323Z,-0.2181
2024-05-09T09:28:45.295Z,-0.1576
2024-05-09T09:29:45.329Z,-0.04451
2024-05-09T09:30:45.365Z,-0.07455
2024-05-09T09:31:45.323Z,-0.1347
2024-05-09T09:32:45.407Z,-0.1347
2024-05-09T09:33:45.546Z,-0.1193
2024-05-09T09:34:45.502Z,-0.09645
2024-05-09T09:35:45.389Z,-0.1496
2024-05-09T09:36:45.444Z,-0.1496
2024-05-09T09:37:45.379Z,-0.05893
2024-05-09T09:38:45.392Z,-0.05893
2024-05-09T09:39:49.072Z,-0.09668
2024-05-09T09:40:49.112Z,-0.1041
2024-05-09T09:41:45.406Z,-0.1344
2024-05-09T09:42:45.436Z,-0.2485
2024-05-09T09:43:45.424Z,-0.4861
2024-05-09T09:44:51.375Z,-0.5482
2024-05-09T09:45:45.463Z,-0.4571
2024-05-09T09:46:45.463Z,-0.3950
2024-05-09T09:47:45.671Z,-0.1881
2024-05-09T09:48:45.647Z,-0.2109
2024-05-09T09:49:45.589Z,-0.07364
2024-05-09T09:50:45.523Z,-0.07364
2024-05-09T09:51:45.549Z,-0.1042
2024-05-09T09:52:45.523Z,-0.01306
2024-05-09T09:53:45.529Z,-0.01306
2024-05-09T09:54:45.540Z,-0.01306
2024-05-09T09:55:45.544Z,-0.01306
2024-05-09T09:56:45.551Z,0.05324
2024-05-09T09:57:45.598Z,0.2257
2024-05-09T09:58:45.570Z,0.2945
2024-05-09T09:59:45.582Z,0.3547
2024-05-09T10:00:45.940Z,0.4239
2024-05-09T10:01:45.652Z,0.4582
2024-05-09T10:02:45.643Z,0.2859
2024-05-09T10:03:45.947Z,0.3550
2024-05-09T10:04:45.792Z,0.3895
2024-05-09T10:05:47.355Z,0.4666
2024-05-09T10:06:45.684Z,0.3967
2024-05-09T10:07:45.674Z,0.3356
2024-05-09T10:08:45.681Z,0.3356
2024-05-09T10:09:45.750Z,0.4033
2024-05-09T10:10:46.088Z,0.4707
2024-05-09T10:14:45.733Z,0.7605
2024-05-09T10:15:46.098Z,0.8271
2024-05-09T10:16:45.771Z,0.9265
2024-05-09T10:17:45.858Z,0.9698
2024-05-09T10:18:46.023Z,1.003
2024-05-09T10:19:45.854Z,0.9611
2024-05-09T10:20:45.828Z,1.020
2024-05-09T10:21:45.840Z,1.119
2024-05-09T10:22:45.813Z,1.119
2024-05-09T10:23:45.827Z,1.119
2024-05-09T10:24:45.861Z,1.262
2024-05-09T10:25:45.841Z,1.360
2024-05-09T10:26:45.842Z,1.412
2024-05-09T10:27:45.887Z,1.412
2024-05-09T10:28:45.883Z,1.471
2024-05-09T10:29:45.889Z,1.477
2024-05-09T10:30:47.219Z,1.349
2024-05-09T10:31:46.177Z,1.262
2024-05-09T10:32:46.076Z,1.190
2024-05-09T10:33:46.113Z,1.222
2024-05-09T10:34:45.964Z,1.318
2024-05-09T10:35:45.951Z,1.382
2024-05-09T10:36:45.993Z,1.542
2024-05-09T10:37:45.963Z,1.478
2024-05-09T10:38:45.978Z,1.655
2024-05-09T10:41:45.978Z,1.878
2024-05-09T10:42:46.048Z,1.878
2024-05-09T10:43:46.008Z,1.966
2024-05-09T10:44:46.023Z,1.980
2024-05-09T10:45:46.087Z,2.043
2024-05-09T10:46:46.045Z,2.169
2024-05-09T10:47:46.154Z,2.232
2024-05-09T10:48:46.175Z,2.239
2024-05-09T10:49:46.243Z,2.050
2024-05-09T10:50:46.097Z,2.064
2024-05-09T10:51:46.133Z,2.177
2024-05-09T10:52:46.129Z,2.240
2024-05-09T10:53:46.187Z,2.303
2024-05-09T10:57:46.151Z,2.206
2024-05-09T10:58:46.157Z,2.206
2024-05-09T10:59:46.170Z,2.238
2024-05-09T11:00:46.253Z,2.365
2024-05-09T11:01:46.304Z,2.525
2024-05-09T11:02:46.262Z,2.556
2024-05-09T11:03:46.508Z,2.525
2024-05-09T11:04:46.294Z,2.525
2024-05-09T11:05:46.275Z,2.649
2024-05-09T11:06:46.256Z,2.799
2024-05-09T11:07:46.242Z,2.799
2024-05-09T11:08:46.247Z,2.737
2024-05-09T11:09:46.290Z,2.706
2024-05-09T11:10:46.607Z,2.487
2024-05-09T11:11:46.339Z,2.337
2024-05-09T11:14:46.297Z,2.146
2024-05-09T11:15:46.377Z,2.221
2024-05-09T11:16:46.327Z,2.209
2024-05-09T11:17:46.418Z,2.334
2024-05-09T11:18:46.434Z,2.462
2024-05-09T11:19:46.401Z,2.713
2024-05-09T11:20:46.445Z,2.824
2024-05-09T11:21:46.380Z,2.917
2024-05-09T11:22:46.384Z,3.062
2024-05-09T11:25:46.381Z,3.224
2024-05-09T11:26:46.388Z,3.162
2024-05-09T11:27:46.465Z,3.337
2024-05-09T11:28:46.426Z,3.398
2024-05-09T11:29:46.438Z,3.367
2024-05-09T11:30:46.464Z,3.307
2024-05-09T11:31:46.702Z,3.246
2024-05-09T11:32:46.562Z,3.171
2024-05-09T11:33:46.604Z,3.109
2024-05-09T11:34:46.488Z,2.923
2024-05-09T11:35:46.491Z,2.860
2024-05-09T11:36:46.605Z,3.019
2024-05-09T11:37:46.499Z,3.081
2024-05-09T11:38:46.505Z,3.175
2024-05-09T11:39:46.591Z,3.267
2024-05-09T11:40:46.552Z,3.359
2024-05-09T11:41:46.536Z,3.569
2024-05-09T11:42:47.744Z,3.603
2024-05-09T11:43:46.550Z,3.543
2024-05-09T11:44:46.566Z,3.512
2024-05-09T11:45:46.579Z,3.421
2024-05-09T11:46:46.574Z,3.587
2024-05-09T11:47:46.652Z,3.495
2024-05-09T11:48:46.800Z,3.464
2024-05-09T11:49:46.644Z,3.495
2024-05-09T11:50:46.609Z,3.552
2024-05-09T11:51:46.655Z,3.468
2024-05-09T11:52:46.626Z,3.675
2024-05-09T11:53:46.641Z,3.857
2024-05-09T11:54:46.712Z,3.895
2024-05-09T11:55:46.668Z,3.578
2024-05-09T11:56:46.679Z,3.257
2024-05-09T11:57:46.783Z,3.195
2024-05-09T11:58:46.750Z,3.226
2024-05-09T11:59:46.711Z,3.257
2024-05-09T12:00:47.335Z,3.257
2024-05-09T12:01:46.878Z,3.359
2024-05-09T12:02:46.727Z,3.421
2024-05-09T12:03:46.926Z,3.513
2024-05-09T12:04:46.920Z,3.482
2024-05-09T12:05:46.832Z,3.482
2024-05-09T12:06:46.777Z,3.350
2024-05-09T12:07:46.764Z,3.288
2024-05-09T12:08:46.771Z,3.228
2024-05-09T12:09:46.825Z,3.197
2024-05-09T12:10:47.068Z,3.384
2024-05-09T12:11:46.861Z,3.508
2024-05-09T12:12:46.859Z,3.322
2024-05-09T12:13:46.831Z,3.397
2024-05-09T12:14:46.830Z,3.293
2024-05-09T12:15:46.862Z,3.146
2024-05-09T12:16:46.978Z,3.146
2024-05-09T12:17:49.485Z,3.083
2024-05-09T12:18:47.040Z,2.923
2024-05-09T12:19:46.882Z,2.955
2024-05-09T12:20:46.855Z,2.851
2024-05-09T12:21:46.932Z,2.883
2024-05-09T12:22:46.875Z,2.818
2024-05-09T12:23:46.898Z,2.828
2024-05-09T12:24:46.928Z,2.971
2024-05-09T12:25:46.918Z,3.260
2024-05-09T12:26:46.928Z,3.544
2024-05-09T12:27:47.012Z,3.482
2024-05-09T12:28:46.949Z,3.578
2024-05-09T12:29:46.949Z,3.483
2024-05-09T12:30:47.012Z,3.451
2024-05-09T12:31:47.033Z,3.420
2024-05-09T12:32:47.140Z,3.324
2024-05-09T12:33:47.109Z,3.082
2024-05-09T12:34:47.016Z,3.146
2024-05-09T12:35:49.249Z,3.210
2024-05-09T12:36:47.047Z,3.210
2024-05-09T12:37:47.012Z,3.145
2024-05-09T12:38:47.020Z,3.145
2024-05-09T12:39:47.079Z,3.112
2024-05-09T12:40:47.176Z,2.982
2024-05-09T12:43:47.067Z,3.017
2024-05-09T12:44:47.071Z,3.146
2024-05-09T12:45:47.135Z,2.984
2024-05-09T12:46:47.100Z,2.821
2024-05-09T12:47:47.153Z,2.755
2024-05-09T12:48:47.332Z,2.739
2024-05-09T12:49:47.220Z,2.772
2024-05-09T12:50:47.205Z,2.706
2024-05-09T12:51:47.172Z,2.838
2024-05-09T12:52:47.153Z,2.936
2024-05-09T12:53:47.154Z,2.926
2024-05-09T12:54:47.179Z,2.596
2024-05-09T12:55:53.743Z,2.696
2024-05-09T12:56:47.192Z,2.729
2024-05-09T12:58:47.191Z,2.880
2024-05-09T12:59:47.193Z,2.788
2024-05-09T13:00:47.574Z,2.589
2024-05-09T13:01:47.286Z,2.634
2024-05-09T13:02:47.272Z,2.388
2024-05-09T13:03:47.389Z,2.523
2024-05-09T13:04:47.384Z,2.888
2024-05-09T13:05:47.369Z,2.855
2024-05-09T13:06:47.292Z,2.824
2024-05-09T13:07:47.303Z,2.923
2024-05-09T13:08:47.301Z,2.724
2024-05-09T13:09:47.305Z,2.482
2024-05-09T13:10:47.508Z,2.346
2024-05-09T13:11:47.345Z,2.415
2024-05-09T13:12:47.404Z,2.347
2024-05-09T13:13:47.324Z,2.415
2024-05-09T13:14:47.337Z,2.347
2024-05-09T13:15:47.394Z,2.347
2024-05-09T13:16:47.388Z,2.398
2024-05-09T13:17:47.474Z,2.364
2024-05-09T13:18:47.554Z,2.636
2024-05-09T13:19:47.420Z,2.602
2024-05-09T13:20:47.412Z,2.599
2024-05-09T13:21:47.454Z,2.522
2024-05-09T13:22:47.430Z,2.387
2024-05-09T13:23:47.445Z,2.353
2024-05-09T13:24:47.462Z,1.976
2024-05-09T13:25:47.446Z,1.932
2024-05-09T13:26:47.469Z,1.838
2024-05-09T13:27:47.528Z,1.698
2024-05-09T13:28:47.463Z,1.450
2024-05-09T13:29:47.488Z,1.628
2024-05-09T13:30:47.551Z,1.516
2024-05-09T13:31:47.499Z,1.386
2024-05-09T13:32:47.615Z,1.491
2024-05-09T13:33:47.788Z,1.735
2024-05-09T13:34:47.611Z,1.855